sensor_id;sensor_type;location;lat;lon;timestamp;P1;durP1;ratioP1;P2;durP2;ratioP2
69419;SDS011;56612;52.030;113.524;2023-03-01T00:00:42;103.50;;;34.42;;
69419;SDS011;56612;52.030;113.524;2023-03-01T00:03:50;104.07;;;30.27;;
69419;SDS011;56612;52.030;113.524;2023-03-01T00:06:54;135.07;;;39.67;;
69419;SDS011;56612;52.030;113.524;2023-03-01T00:09:58;152.52;;;48.15;;
69419;SDS011;56612;52.030;113.524;2023-03-01T00:13:02;144.13;;;47.17;;
69419;SDS011;56612;52.030;113.524;2023-03-01T00:16:08;202.17;;;57.10;;
69419;SDS011;56612;52.030;113.524;2023-03-01T00:19:15;222.10;;;57.17;;
69419;SDS011;56612;52.030;113.524;2023-03-01T00:22:21;138.02;;;45.35;;
69419;SDS011;56612;52.030;113.524;2023-03-01T00:25:26;174.48;;;46.30;;
69419;SDS011;56612;52.030;113.524;2023-03-01T00:28:29;200.90;;;57.80;;
69419;SDS011;56612;52.030;113.524;2023-03-01T00:31:34;144.77;;;44.65;;
69419;SDS011;56612;52.030;113.524;2023-03-01T00:34:39;156.57;;;44.83;;
69419;SDS011;56612;52.030;113.524;2023-03-01T00:37:42;122.07;;;40.72;;
69419;SDS011;56612;52.030;113.524;2023-03-01T00:40:45;116.90;;;37.85;;
69419;SDS011;56612;52.030;113.524;2023-03-01T00:43:49;150.65;;;38.22;;
69419;SDS011;56612;52.030;113.524;2023-03-01T00:46:53;109.43;;;30.67;;
69419;SDS011;56612;52.030;113.524;2023-03-01T00:49:57;106.13;;;33.47;;
69419;SDS011;56612;52.030;113.524;2023-03-01T00:53:01;110.55;;;31.85;;
69419;SDS011;56612;52.030;113.524;2023-03-01T00:56:05;102.03;;;30.48;;
69419;SDS011;56612;52.030;113.524;2023-03-01T00:59:11;115.95;;;36.60;;
69419;SDS011;56612;52.030;113.524;2023-03-01T01:02:15;81.07;;;26.67;;
69419;SDS011;56612;52.030;113.524;2023-03-01T01:05:18;92.35;;;27.10;;
69419;SDS011;56612;52.030;113.524;2023-03-01T01:08:23;114.20;;;28.98;;
69419;SDS011;56612;52.030;113.524;2023-03-01T01:11:28;92.67;;;29.13;;
69419;SDS011;56612;52.030;113.524;2023-03-01T01:14:32;100.85;;;28.52;;
69419;SDS011;56612;52.030;113.524;2023-03-01T01:17:36;113.00;;;35.00;;
69419;SDS011;56612;52.030;113.524;2023-03-01T01:20:41;136.98;;;37.17;;
69419;SDS011;56612;52.030;113.524;2023-03-01T01:23:45;117.80;;;36.83;;
69419;SDS011;56612;52.030;113.524;2023-03-01T01:26:49;134.53;;;41.03;;
69419;SDS011;56612;52.030;113.524;2023-03-01T01:29:53;155.13;;;45.72;;
69419;SDS011;56612;52.030;113.524;2023-03-01T01:32:56;176.40;;;50.17;;
69419;SDS011;56612;52.030;113.524;2023-03-01T01:36:00;136.93;;;40.10;;
69419;SDS011;56612;52.030;113.524;2023-03-01T01:39:04;125.95;;;41.60;;
69419;SDS011;56612;52.030;113.524;2023-03-01T01:42:17;128.87;;;36.80;;
69419;SDS011;56612;52.030;113.524;2023-03-01T01:48:41;111.25;;;35.10;;
69419;SDS011;56612;52.030;113.524;2023-03-01T01:51:51;91.90;;;30.55;;
69419;SDS011;56612;52.030;113.524;2023-03-01T01:58:15;118.97;;;35.17;;
69419;SDS011;56612;52.030;113.524;2023-03-01T02:01:22;117.30;;;35.95;;
69419;SDS011;56612;52.030;113.524;2023-03-01T02:04:26;117.47;;;37.50;;
69419;SDS011;56612;52.030;113.524;2023-03-01T02:07:30;112.45;;;38.10;;
69419;SDS011;56612;52.030;113.524;2023-03-01T02:10:33;105.28;;;36.13;;
69419;SDS011;56612;52.030;113.524;2023-03-01T02:13:38;109.30;;;36.03;;
69419;SDS011;56612;52.030;113.524;2023-03-01T02:16:42;114.82;;;36.78;;
69419;SDS011;56612;52.030;113.524;2023-03-01T02:23:22;111.07;;;35.92;;
69419;SDS011;56612;52.030;113.524;2023-03-01T02:26:36;106.63;;;29.90;;
69419;SDS011;56612;52.030;113.524;2023-03-01T02:29:41;66.07;;;24.50;;
69419;SDS011;56612;52.030;113.524;2023-03-01T02:32:48;62.47;;;22.85;;
69419;SDS011;56612;52.030;113.524;2023-03-01T02:35:54;64.55;;;21.08;;
69419;SDS011;56612;52.030;113.524;2023-03-01T02:38:58;51.40;;;18.73;;
69419;SDS011;56612;52.030;113.524;2023-03-01T02:42:05;47.90;;;17.65;;
69419;SDS011;56612;52.030;113.524;2023-03-01T02:45:10;57.07;;;20.77;;
69419;SDS011;56612;52.030;113.524;2023-03-01T02:48:13;64.53;;;20.77;;
69419;SDS011;56612;52.030;113.524;2023-03-01T02:54:59;52.30;;;15.40;;
69419;SDS011;56612;52.030;113.524;2023-03-01T02:58:09;50.65;;;15.48;;
69419;SDS011;56612;52.030;113.524;2023-03-01T03:01:13;41.00;;;13.50;;
69419;SDS011;56612;52.030;113.524;2023-03-01T03:04:19;41.05;;;14.13;;
69419;SDS011;56612;52.030;113.524;2023-03-01T03:07:24;39.58;;;14.65;;
69419;SDS011;56612;52.030;113.524;2023-03-01T03:10:29;35.10;;;12.57;;
69419;SDS011;56612;52.030;113.524;2023-03-01T03:13:34;23.00;;;8.00;;
69419;SDS011;56612;52.030;113.524;2023-03-01T03:16:39;32.20;;;10.07;;
69419;SDS011;56612;52.030;113.524;2023-03-01T03:19:45;19.00;;;8.00;;
69419;SDS011;56612;52.030;113.524;2023-03-01T03:22:50;23.98;;;7.90;;
69419;SDS011;56612;52.030;113.524;2023-03-01T03:25:55;33.25;;;8.73;;
69419;SDS011;56612;52.030;113.524;2023-03-01T03:28:59;20.10;;;6.68;;
69419;SDS011;56612;52.030;113.524;2023-03-01T03:32:04;23.57;;;6.77;;
69419;SDS011;56612;52.030;113.524;2023-03-01T03:35:08;14.45;;;4.82;;
69419;SDS011;56612;52.030;113.524;2023-03-01T03:38:13;30.05;;;7.10;;
69419;SDS011;56612;52.030;113.524;2023-03-01T03:41:20;19.00;;;5.60;;
69419;SDS011;56612;52.030;113.524;2023-03-01T03:44:23;20.85;;;5.97;;
69419;SDS011;56612;52.030;113.524;2023-03-01T03:47:28;10.70;;;4.37;;
69419;SDS011;56612;52.030;113.524;2023-03-01T03:50:31;16.45;;;5.00;;
69419;SDS011;56612;52.030;113.524;2023-03-01T03:53:35;11.05;;;4.97;;
69419;SDS011;56612;52.030;113.524;2023-03-01T03:56:39;15.52;;;4.60;;
69419;SDS011;56612;52.030;113.524;2023-03-01T03:59:42;18.33;;;5.90;;
69419;SDS011;56612;52.030;113.524;2023-03-01T04:02:46;28.27;;;6.10;;
69419;SDS011;56612;52.030;113.524;2023-03-01T04:05:50;22.60;;;6.32;;
69419;SDS011;56612;52.030;113.524;2023-03-01T04:08:54;20.25;;;6.32;;
69419;SDS011;56612;52.030;113.524;2023-03-01T04:12:01;15.55;;;6.00;;
69419;SDS011;56612;52.030;113.524;2023-03-01T04:15:05;14.30;;;5.40;;
69419;SDS011;56612;52.030;113.524;2023-03-01T04:18:17;20.47;;;6.20;;
69419;SDS011;56612;52.030;113.524;2023-03-01T04:21:22;21.48;;;5.50;;
69419;SDS011;56612;52.030;113.524;2023-03-01T04:24:25;22.80;;;6.38;;
69419;SDS011;56612;52.030;113.524;2023-03-01T04:27:29;22.88;;;7.00;;
69419;SDS011;56612;52.030;113.524;2023-03-01T04:30:34;27.80;;;6.10;;
69419;SDS011;56612;52.030;113.524;2023-03-01T04:33:45;18.37;;;5.87;;
69419;SDS011;56612;52.030;113.524;2023-03-01T04:36:51;25.83;;;6.43;;
69419;SDS011;56612;52.030;113.524;2023-03-01T04:39:54;27.83;;;6.50;;
69419;SDS011;56612;52.030;113.524;2023-03-01T04:42:58;29.95;;;7.22;;
69419;SDS011;56612;52.030;113.524;2023-03-01T04:46:05;31.70;;;7.00;;
69419;SDS011;56612;52.030;113.524;2023-03-01T04:49:12;29.07;;;6.67;;
69419;SDS011;56612;52.030;113.524;2023-03-01T04:52:15;24.33;;;6.07;;
69419;SDS011;56612;52.030;113.524;2023-03-01T04:55:19;26.33;;;6.25;;
69419;SDS011;56612;52.030;113.524;2023-03-01T04:58:23;32.22;;;6.78;;
69419;SDS011;56612;52.030;113.524;2023-03-01T05:01:29;14.38;;;4.40;;
69419;SDS011;56612;52.030;113.524;2023-03-01T05:04:32;16.50;;;3.90;;
69419;SDS011;56612;52.030;113.524;2023-03-01T05:07:36;15.45;;;4.38;;
69419;SDS011;56612;52.030;113.524;2023-03-01T05:10:40;19.85;;;4.53;;
69419;SDS011;56612;52.030;113.524;2023-03-01T05:13:45;26.25;;;5.78;;
69419;SDS011;56612;52.030;113.524;2023-03-01T05:16:49;19.27;;;5.43;;
69419;SDS011;56612;52.030;113.524;2023-03-01T05:19:53;10.07;;;3.00;;
69419;SDS011;56612;52.030;113.524;2023-03-01T05:22:59;8.68;;;2.58;;
69419;SDS011;56612;52.030;113.524;2023-03-01T05:26:04;11.38;;;3.00;;
69419;SDS011;56612;52.030;113.524;2023-03-01T05:29:12;6.55;;;2.30;;
69419;SDS011;56612;52.030;113.524;2023-03-01T05:32:17;9.02;;;2.90;;
69419;SDS011;56612;52.030;113.524;2023-03-01T05:35:21;10.77;;;2.80;;
69419;SDS011;56612;52.030;113.524;2023-03-01T05:38:26;10.07;;;2.50;;
69419;SDS011;56612;52.030;113.524;2023-03-01T05:41:30;20.70;;;3.30;;
69419;SDS011;56612;52.030;113.524;2023-03-01T05:44:34;7.82;;;2.38;;
69419;SDS011;56612;52.030;113.524;2023-03-01T05:47:41;6.80;;;1.70;;
69419;SDS011;56612;52.030;113.524;2023-03-01T05:50:46;3.17;;;1.10;;
69419;SDS011;56612;52.030;113.524;2023-03-01T05:53:51;5.85;;;1.85;;
69419;SDS011;56612;52.030;113.524;2023-03-01T05:56:55;3.28;;;1.08;;
69419;SDS011;56612;52.030;113.524;2023-03-01T05:59:59;5.22;;;1.25;;
69419;SDS011;56612;52.030;113.524;2023-03-01T06:03:13;9.23;;;2.50;;
69419;SDS011;56612;52.030;113.524;2023-03-01T06:06:18;8.17;;;2.40;;
69419;SDS011;56612;52.030;113.524;2023-03-01T06:09:23;4.82;;;1.67;;
69419;SDS011;56612;52.030;113.524;2023-03-01T06:12:32;6.72;;;2.33;;
69419;SDS011;56612;52.030;113.524;2023-03-01T06:15:38;9.80;;;2.50;;
69419;SDS011;56612;52.030;113.524;2023-03-01T06:18:41;6.10;;;2.05;;
69419;SDS011;56612;52.030;113.524;2023-03-01T06:21:46;13.20;;;2.40;;
69419;SDS011;56612;52.030;113.524;2023-03-01T06:24:50;5.88;;;1.48;;
69419;SDS011;56612;52.030;113.524;2023-03-01T06:27:58;6.15;;;2.05;;
69419;SDS011;56612;52.030;113.524;2023-03-01T06:31:01;7.72;;;1.90;;
69419;SDS011;56612;52.030;113.524;2023-03-01T06:34:05;7.65;;;2.70;;
69419;SDS011;56612;52.030;113.524;2023-03-01T06:37:08;9.40;;;2.70;;
69419;SDS011;56612;52.030;113.524;2023-03-01T06:40:12;15.60;;;3.20;;
69419;SDS011;56612;52.030;113.524;2023-03-01T06:43:18;10.50;;;2.33;;
69419;SDS011;56612;52.030;113.524;2023-03-01T06:46:21;7.05;;;2.20;;
69419;SDS011;56612;52.030;113.524;2023-03-01T06:49:24;8.00;;;2.47;;
69419;SDS011;56612;52.030;113.524;2023-03-01T06:52:28;12.27;;;4.20;;
69419;SDS011;56612;52.030;113.524;2023-03-01T06:55:32;11.20;;;3.40;;
69419;SDS011;56612;52.030;113.524;2023-03-01T06:58:37;13.68;;;3.45;;
69419;SDS011;56612;52.030;113.524;2023-03-01T07:01:40;11.35;;;4.03;;
69419;SDS011;56612;52.030;113.524;2023-03-01T07:04:44;13.55;;;3.38;;
69419;SDS011;56612;52.030;113.524;2023-03-01T07:07:47;11.00;;;2.67;;
69419;SDS011;56612;52.030;113.524;2023-03-01T07:11:00;11.93;;;2.50;;
69419;SDS011;56612;52.030;113.524;2023-03-01T07:14:04;6.13;;;2.40;;
69419;SDS011;56612;52.030;113.524;2023-03-01T07:17:09;8.38;;;2.17;;
69419;SDS011;56612;52.030;113.524;2023-03-01T07:20:12;11.10;;;3.00;;
69419;SDS011;56612;52.030;113.524;2023-03-01T07:23:16;13.03;;;3.70;;
69419;SDS011;56612;52.030;113.524;2023-03-01T07:26:20;11.82;;;3.72;;
69419;SDS011;56612;52.030;113.524;2023-03-01T07:29:27;15.13;;;5.22;;
69419;SDS011;56612;52.030;113.524;2023-03-01T07:32:31;21.65;;;6.53;;
69419;SDS011;56612;52.030;113.524;2023-03-01T07:35:35;11.65;;;4.10;;
69419;SDS011;56612;52.030;113.524;2023-03-01T07:38:39;18.23;;;5.00;;
69419;SDS011;56612;52.030;113.524;2023-03-01T07:41:42;24.50;;;5.13;;
69419;SDS011;56612;52.030;113.524;2023-03-01T07:44:45;11.77;;;3.47;;
69419;SDS011;56612;52.030;113.524;2023-03-01T07:47:50;12.95;;;3.22;;
69419;SDS011;56612;52.030;113.524;2023-03-01T07:50:53;18.88;;;3.72;;
69419;SDS011;56612;52.030;113.524;2023-03-01T07:53:57;13.30;;;2.77;;
69419;SDS011;56612;52.030;113.524;2023-03-01T07:57:00;15.77;;;3.08;;
69419;SDS011;56612;52.030;113.524;2023-03-01T08:00:03;13.88;;;5.05;;
69419;SDS011;56612;52.030;113.524;2023-03-01T08:03:12;16.02;;;4.20;;
69419;SDS011;56612;52.030;113.524;2023-03-01T08:06:16;17.08;;;4.10;;
69419;SDS011;56612;52.030;113.524;2023-03-01T08:09:20;16.27;;;4.50;;
69419;SDS011;56612;52.030;113.524;2023-03-01T08:12:24;17.55;;;4.95;;
69419;SDS011;56612;52.030;113.524;2023-03-01T08:15:29;11.77;;;4.20;;
69419;SDS011;56612;52.030;113.524;2023-03-01T08:18:33;15.20;;;5.35;;
69419;SDS011;56612;52.030;113.524;2023-03-01T08:21:37;22.67;;;5.43;;
69419;SDS011;56612;52.030;113.524;2023-03-01T08:24:41;33.03;;;12.53;;
69419;SDS011;56612;52.030;113.524;2023-03-01T08:27:44;16.45;;;4.65;;
69419;SDS011;56612;52.030;113.524;2023-03-01T08:30:47;22.00;;;7.05;;
69419;SDS011;56612;52.030;113.524;2023-03-01T08:33:51;18.75;;;5.57;;
69419;SDS011;56612;52.030;113.524;2023-03-01T08:36:59;13.27;;;5.10;;
69419;SDS011;56612;52.030;113.524;2023-03-01T08:40:03;17.93;;;6.43;;
69419;SDS011;56612;52.030;113.524;2023-03-01T08:43:11;17.45;;;5.50;;
69419;SDS011;56612;52.030;113.524;2023-03-01T08:46:14;16.80;;;4.93;;
69419;SDS011;56612;52.030;113.524;2023-03-01T08:49:19;14.10;;;5.93;;
69419;SDS011;56612;52.030;113.524;2023-03-01T08:52:23;18.55;;;7.03;;
69419;SDS011;56612;52.030;113.524;2023-03-01T08:55:26;27.27;;;9.90;;
69419;SDS011;56612;52.030;113.524;2023-03-01T08:58:30;77.82;;;21.05;;
69419;SDS011;56612;52.030;113.524;2023-03-01T09:01:35;15.45;;;5.10;;
69419;SDS011;56612;52.030;113.524;2023-03-01T09:04:39;24.70;;;4.32;;
69419;SDS011;56612;52.030;113.524;2023-03-01T09:07:43;24.73;;;4.85;;
69419;SDS011;56612;52.030;113.524;2023-03-01T09:10:47;25.87;;;4.67;;
69419;SDS011;56612;52.030;113.524;2023-03-01T09:13:51;12.57;;;3.22;;
69419;SDS011;56612;52.030;113.524;2023-03-01T09:16:55;10.52;;;3.00;;
69419;SDS011;56612;52.030;113.524;2023-03-01T09:19:58;9.60;;;2.60;;
69419;SDS011;56612;52.030;113.524;2023-03-01T09:23:02;15.02;;;2.78;;
69419;SDS011;56612;52.030;113.524;2023-03-01T09:26:06;8.13;;;2.23;;
69419;SDS011;56612;52.030;113.524;2023-03-01T09:29:11;36.15;;;4.60;;
69419;SDS011;56612;52.030;113.524;2023-03-01T09:32:16;24.08;;;4.28;;
69419;SDS011;56612;52.030;113.524;2023-03-01T09:35:20;23.83;;;3.83;;
69419;SDS011;56612;52.030;113.524;2023-03-01T09:38:26;10.55;;;2.90;;
69419;SDS011;56612;52.030;113.524;2023-03-01T09:41:47;13.97;;;4.23;;
69419;SDS011;56612;52.030;113.524;2023-03-01T09:45:06;17.15;;;4.90;;
69419;SDS011;56612;52.030;113.524;2023-03-01T09:48:20;27.30;;;6.20;;
69419;SDS011;56612;52.030;113.524;2023-03-01T09:51:35;22.27;;;7.13;;
69419;SDS011;56612;52.030;113.524;2023-03-01T09:54:39;62.47;;;16.27;;
69419;SDS011;56612;52.030;113.524;2023-03-01T09:57:53;24.57;;;8.77;;
69419;SDS011;56612;52.030;113.524;2023-03-01T10:04:32;29.67;;;8.85;;
69419;SDS011;56612;52.030;113.524;2023-03-01T10:07:59;30.77;;;9.50;;
69419;SDS011;56612;52.030;113.524;2023-03-01T10:11:25;28.52;;;8.30;;
69419;SDS011;56612;52.030;113.524;2023-03-01T10:14:35;36.67;;;9.90;;
69419;SDS011;56612;52.030;113.524;2023-03-01T10:20:59;36.17;;;9.68;;
69419;SDS011;56612;52.030;113.524;2023-03-01T10:24:10;35.22;;;9.65;;
69419;SDS011;56612;52.030;113.524;2023-03-01T10:30:43;25.70;;;8.50;;
69419;SDS011;56612;52.030;113.524;2023-03-01T10:33:50;53.08;;;9.80;;
69419;SDS011;56612;52.030;113.524;2023-03-01T10:37:11;26.67;;;7.60;;
69419;SDS011;56612;52.030;113.524;2023-03-01T10:40:15;32.55;;;8.48;;
69419;SDS011;56612;52.030;113.524;2023-03-01T10:43:23;32.28;;;8.88;;
69419;SDS011;56612;52.030;113.524;2023-03-01T10:46:49;26.17;;;8.30;;
69419;SDS011;56612;52.030;113.524;2023-03-01T10:50:03;28.02;;;8.45;;
69419;SDS011;56612;52.030;113.524;2023-03-01T10:56:26;34.95;;;9.05;;
69419;SDS011;56612;52.030;113.524;2023-03-01T10:59:38;35.30;;;10.57;;
69419;SDS011;56612;52.030;113.524;2023-03-01T11:02:42;23.87;;;7.93;;
69419;SDS011;56612;52.030;113.524;2023-03-01T11:09:15;25.55;;;7.05;;
69419;SDS011;56612;52.030;113.524;2023-03-01T11:12:19;25.13;;;6.75;;
69419;SDS011;56612;52.030;113.524;2023-03-01T11:15:26;27.55;;;7.35;;
69419;SDS011;56612;52.030;113.524;2023-03-01T11:18:33;32.97;;;8.20;;
69419;SDS011;56612;52.030;113.524;2023-03-01T11:25:15;32.38;;;8.40;;
69419;SDS011;56612;52.030;113.524;2023-03-01T11:28:22;25.50;;;6.90;;
69419;SDS011;56612;52.030;113.524;2023-03-01T11:31:27;20.27;;;6.18;;
69419;SDS011;56612;52.030;113.524;2023-03-01T11:34:37;24.25;;;6.38;;
69419;SDS011;56612;52.030;113.524;2023-03-01T11:41:10;30.23;;;6.32;;
69419;SDS011;56612;52.030;113.524;2023-03-01T11:44:29;22.10;;;6.23;;
69419;SDS011;56612;52.030;113.524;2023-03-01T11:51:18;14.02;;;3.97;;
69419;SDS011;56612;52.030;113.524;2023-03-01T11:58:54;31.67;;;4.88;;
69419;SDS011;56612;52.030;113.524;2023-03-01T12:05:21;22.05;;;5.80;;
69419;SDS011;56612;52.030;113.524;2023-03-01T12:12:07;19.38;;;4.22;;
69419;SDS011;56612;52.030;113.524;2023-03-01T12:15:32;12.65;;;4.35;;
69419;SDS011;56612;52.030;113.524;2023-03-01T12:22:30;15.48;;;4.82;;
69419;SDS011;56612;52.030;113.524;2023-03-01T12:25:45;40.08;;;11.77;;
69419;SDS011;56612;52.030;113.524;2023-03-01T12:43:27;24.10;;;4.63;;
69419;SDS011;56612;52.030;113.524;2023-03-01T12:50:39;21.40;;;4.93;;
69419;SDS011;56612;52.030;113.524;2023-03-01T12:53:48;11.20;;;3.43;;
69419;SDS011;56612;52.030;113.524;2023-03-01T12:56:58;25.90;;;6.82;;
69419;SDS011;56612;52.030;113.524;2023-03-01T13:06:32;17.80;;;3.88;;
69419;SDS011;56612;52.030;113.524;2023-03-01T13:10:00;34.10;;;10.83;;
69419;SDS011;56612;52.030;113.524;2023-03-01T13:13:24;30.30;;;9.27;;
69419;SDS011;56612;52.030;113.524;2023-03-01T13:19:32;22.65;;;7.68;;
69419;SDS011;56612;52.030;113.524;2023-03-01T13:22:38;24.45;;;4.72;;
69419;SDS011;56612;52.030;113.524;2023-03-01T13:29:25;29.58;;;7.38;;
69419;SDS011;56612;52.030;113.524;2023-03-01T13:32:30;28.25;;;7.90;;
69419;SDS011;56612;52.030;113.524;2023-03-01T13:35:50;16.95;;;5.13;;
69419;SDS011;56612;52.030;113.524;2023-03-01T13:38:55;16.10;;;5.18;;
69419;SDS011;56612;52.030;113.524;2023-03-01T13:42:52;28.77;;;8.17;;
69419;SDS011;56612;52.030;113.524;2023-03-01T13:46:22;64.53;;;18.02;;
69419;SDS011;56612;52.030;113.524;2023-03-01T13:49:28;65.30;;;18.98;;
69419;SDS011;56612;52.030;113.524;2023-03-01T13:52:52;79.25;;;24.08;;
69419;SDS011;56612;52.030;113.524;2023-03-01T13:56:08;87.93;;;25.75;;
69419;SDS011;56612;52.030;113.524;2023-03-01T13:59:16;78.47;;;24.27;;
69419;SDS011;56612;52.030;113.524;2023-03-01T14:02:23;83.78;;;23.73;;
69419;SDS011;56612;52.030;113.524;2023-03-01T14:05:27;65.03;;;20.95;;
69419;SDS011;56612;52.030;113.524;2023-03-01T14:08:32;46.85;;;12.73;;
69419;SDS011;56612;52.030;113.524;2023-03-01T14:11:43;51.10;;;15.05;;
69419;SDS011;56612;52.030;113.524;2023-03-01T14:18:18;50.85;;;16.10;;
69419;SDS011;56612;52.030;113.524;2023-03-01T14:21:33;24.10;;;8.48;;
69419;SDS011;56612;52.030;113.524;2023-03-01T14:24:39;23.13;;;6.85;;
69419;SDS011;56612;52.030;113.524;2023-03-01T14:27:54;14.85;;;4.70;;
69419;SDS011;56612;52.030;113.524;2023-03-01T14:34:49;35.70;;;8.38;;
69419;SDS011;56612;52.030;113.524;2023-03-01T14:37:53;21.38;;;7.30;;
69419;SDS011;56612;52.030;113.524;2023-03-01T14:40:58;24.90;;;7.00;;
69419;SDS011;56612;52.030;113.524;2023-03-01T14:44:07;30.92;;;7.60;;
69419;SDS011;56612;52.030;113.524;2023-03-01T14:47:36;31.83;;;7.83;;
69419;SDS011;56612;52.030;113.524;2023-03-01T14:50:45;34.05;;;7.28;;
69419;SDS011;56612;52.030;113.524;2023-03-01T14:53:50;16.27;;;5.15;;
69419;SDS011;56612;52.030;113.524;2023-03-01T14:56:57;13.43;;;5.18;;
69419;SDS011;56612;52.030;113.524;2023-03-01T15:00:03;15.18;;;5.22;;
69419;SDS011;56612;52.030;113.524;2023-03-01T15:06:42;15.82;;;5.18;;
69419;SDS011;56612;52.030;113.524;2023-03-01T15:09:47;21.65;;;6.35;;
69419;SDS011;56612;52.030;113.524;2023-03-01T15:12:51;18.58;;;6.18;;
69419;SDS011;56612;52.030;113.524;2023-03-01T15:16:08;19.45;;;5.53;;
69419;SDS011;56612;52.030;113.524;2023-03-01T15:19:15;22.10;;;6.87;;
69419;SDS011;56612;52.030;113.524;2023-03-01T15:22:21;20.25;;;6.00;;
69419;SDS011;56612;52.030;113.524;2023-03-01T15:25:28;21.52;;;6.25;;
69419;SDS011;56612;52.030;113.524;2023-03-01T15:28:34;8.90;;;2.42;;
69419;SDS011;56612;52.030;113.524;2023-03-01T15:35:41;6.73;;;1.60;;
69419;SDS011;56612;52.030;113.524;2023-03-01T15:38:54;7.97;;;2.35;;
69419;SDS011;56612;52.030;113.524;2023-03-01T15:42:01;4.53;;;1.65;;
69419;SDS011;56612;52.030;113.524;2023-03-01T15:48:17;12.65;;;1.55;;
69419;SDS011;56612;52.030;113.524;2023-03-01T15:51:27;9.80;;;2.13;;
69419;SDS011;56612;52.030;113.524;2023-03-01T15:54:34;7.60;;;2.08;;
69419;SDS011;56612;52.030;113.524;2023-03-01T15:57:38;8.20;;;2.10;;
69419;SDS011;56612;52.030;113.524;2023-03-01T16:00:42;7.30;;;1.90;;
69419;SDS011;56612;52.030;113.524;2023-03-01T16:04:01;11.45;;;3.42;;
69419;SDS011;56612;52.030;113.524;2023-03-01T16:07:05;4.90;;;1.43;;
69419;SDS011;56612;52.030;113.524;2023-03-01T16:10:09;9.75;;;2.00;;
69419;SDS011;56612;52.030;113.524;2023-03-01T16:13:13;13.27;;;1.85;;
69419;SDS011;56612;52.030;113.524;2023-03-01T16:16:17;6.65;;;1.45;;
69419;SDS011;56612;52.030;113.524;2023-03-01T16:19:20;7.82;;;1.77;;
69419;SDS011;56612;52.030;113.524;2023-03-01T16:22:24;4.93;;;1.60;;
69419;SDS011;56612;52.030;113.524;2023-03-01T16:25:30;5.15;;;1.38;;
69419;SDS011;56612;52.030;113.524;2023-03-01T16:28:35;5.35;;;1.30;;
69419;SDS011;56612;52.030;113.524;2023-03-01T16:31:39;5.70;;;1.52;;
69419;SDS011;56612;52.030;113.524;2023-03-01T16:34:43;6.00;;;1.55;;
69419;SDS011;56612;52.030;113.524;2023-03-01T16:37:47;5.10;;;1.80;;
69419;SDS011;56612;52.030;113.524;2023-03-01T16:40:51;5.50;;;1.85;;
69419;SDS011;56612;52.030;113.524;2023-03-01T16:43:56;5.50;;;1.73;;
69419;SDS011;56612;52.030;113.524;2023-03-01T16:46:59;5.95;;;1.30;;
69419;SDS011;56612;52.030;113.524;2023-03-01T16:50:03;5.72;;;1.25;;
69419;SDS011;56612;52.030;113.524;2023-03-01T16:53:06;4.50;;;1.20;;
69419;SDS011;56612;52.030;113.524;2023-03-01T16:56:11;4.90;;;1.55;;
69419;SDS011;56612;52.030;113.524;2023-03-01T16:59:15;3.97;;;1.30;;
69419;SDS011;56612;52.030;113.524;2023-03-01T17:02:19;6.40;;;1.58;;
69419;SDS011;56612;52.030;113.524;2023-03-01T17:05:23;4.25;;;1.58;;
69419;SDS011;56612;52.030;113.524;2023-03-01T17:08:28;6.63;;;1.60;;
69419;SDS011;56612;52.030;113.524;2023-03-01T17:11:31;7.93;;;1.88;;
69419;SDS011;56612;52.030;113.524;2023-03-01T17:14:35;9.13;;;1.75;;
69419;SDS011;56612;52.030;113.524;2023-03-01T17:17:40;5.80;;;2.03;;
69419;SDS011;56612;52.030;113.524;2023-03-01T17:20:43;8.13;;;2.03;;
69419;SDS011;56612;52.030;113.524;2023-03-01T17:23:47;5.97;;;2.30;;
69419;SDS011;56612;52.030;113.524;2023-03-01T17:26:51;6.85;;;1.83;;
69419;SDS011;56612;52.030;113.524;2023-03-01T17:29:54;8.75;;;1.88;;
69419;SDS011;56612;52.030;113.524;2023-03-01T17:32:58;5.35;;;1.75;;
69419;SDS011;56612;52.030;113.524;2023-03-01T17:36:02;4.60;;;1.42;;
69419;SDS011;56612;52.030;113.524;2023-03-01T17:39:05;12.80;;;3.27;;
69419;SDS011;56612;52.030;113.524;2023-03-01T17:42:09;6.72;;;2.13;;
69419;SDS011;56612;52.030;113.524;2023-03-01T17:45:12;6.03;;;2.13;;
69419;SDS011;56612;52.030;113.524;2023-03-01T17:48:15;9.98;;;1.77;;
69419;SDS011;56612;52.030;113.524;2023-03-01T17:51:19;4.85;;;1.25;;
69419;SDS011;56612;52.030;113.524;2023-03-01T17:54:23;6.83;;;1.63;;
69419;SDS011;56612;52.030;113.524;2023-03-01T17:57:27;6.47;;;2.03;;
69419;SDS011;56612;52.030;113.524;2023-03-01T18:00:31;6.07;;;1.77;;
69419;SDS011;56612;52.030;113.524;2023-03-01T18:03:36;5.57;;;1.48;;
69419;SDS011;56612;52.030;113.524;2023-03-01T18:06:40;5.00;;;1.50;;
69419;SDS011;56612;52.030;113.524;2023-03-01T18:09:44;5.87;;;1.90;;
69419;SDS011;56612;52.030;113.524;2023-03-01T18:12:47;5.68;;;1.83;;
69419;SDS011;56612;52.030;113.524;2023-03-01T18:15:51;5.32;;;1.50;;
69419;SDS011;56612;52.030;113.524;2023-03-01T18:18:55;7.38;;;1.58;;
69419;SDS011;56612;52.030;113.524;2023-03-01T18:21:59;8.18;;;1.85;;
69419;SDS011;56612;52.030;113.524;2023-03-01T18:25:03;8.20;;;2.60;;
69419;SDS011;56612;52.030;113.524;2023-03-01T18:28:07;4.68;;;1.42;;
69419;SDS011;56612;52.030;113.524;2023-03-01T18:31:11;4.85;;;1.60;;
69419;SDS011;56612;52.030;113.524;2023-03-01T18:34:20;6.25;;;1.50;;
69419;SDS011;56612;52.030;113.524;2023-03-01T18:37:24;4.43;;;1.45;;
69419;SDS011;56612;52.030;113.524;2023-03-01T18:40:30;5.23;;;1.73;;
69419;SDS011;56612;52.030;113.524;2023-03-01T18:43:34;7.28;;;2.00;;
69419;SDS011;56612;52.030;113.524;2023-03-01T18:46:37;5.32;;;1.80;;
69419;SDS011;56612;52.030;113.524;2023-03-01T18:49:42;4.95;;;1.50;;
69419;SDS011;56612;52.030;113.524;2023-03-01T18:52:45;5.03;;;1.70;;
69419;SDS011;56612;52.030;113.524;2023-03-01T18:55:49;6.87;;;1.87;;
69419;SDS011;56612;52.030;113.524;2023-03-01T18:58:52;4.65;;;1.23;;
69419;SDS011;56612;52.030;113.524;2023-03-01T19:01:55;11.40;;;2.08;;
69419;SDS011;56612;52.030;113.524;2023-03-01T19:04:58;7.22;;;2.00;;
69419;SDS011;56612;52.030;113.524;2023-03-01T19:08:02;11.02;;;2.20;;
69419;SDS011;56612;52.030;113.524;2023-03-01T19:11:05;5.83;;;1.67;;
69419;SDS011;56612;52.030;113.524;2023-03-01T19:14:10;6.47;;;1.70;;
69419;SDS011;56612;52.030;113.524;2023-03-01T19:17:13;7.20;;;2.00;;
69419;SDS011;56612;52.030;113.524;2023-03-01T19:20:17;6.57;;;1.90;;
69419;SDS011;56612;52.030;113.524;2023-03-01T19:23:21;6.05;;;1.80;;
69419;SDS011;56612;52.030;113.524;2023-03-01T19:26:28;4.30;;;1.37;;
69419;SDS011;56612;52.030;113.524;2023-03-01T19:29:32;6.72;;;2.05;;
69419;SDS011;56612;52.030;113.524;2023-03-01T19:32:36;4.32;;;1.27;;
69419;SDS011;56612;52.030;113.524;2023-03-01T19:35:40;5.68;;;1.92;;
69419;SDS011;56612;52.030;113.524;2023-03-01T19:38:43;4.97;;;1.50;;